createdAt,value
2017-11-30T00:00:18.409Z,69.80
2017-11-30T00:01:18.381Z,69.90
2017-11-30T00:02:18.355Z,68.50
2017-11-30T00:03:18.328Z,72.20
2017-11-30T00:04:18.303Z,70.40
2017-11-30T00:05:18.275Z,71.60
2017-11-30T00:06:18.248Z,69.10
2017-11-30T00:07:18.222Z,74.10
2017-11-30T00:08:18.196Z,69.90
2017-11-30T00:09:18.169Z,70.40
2017-11-30T00:10:18.142Z,74.70
2017-11-30T00:11:18.115Z,74.30
2017-11-30T00:12:18.088Z,66.20
2017-11-30T00:13:18.062Z,69.00
2017-11-30T00:14:18.034Z,71.10
2017-11-30T00:15:18.012Z,65.90
2017-11-30T00:16:17.990Z,72.00
2017-11-30T00:17:17.955Z,71.60
2017-11-30T00:18:17.927Z,65.40
2017-11-30T00:19:17.906Z,72.60
2017-11-30T00:20:17.876Z,71.00
2017-11-30T00:21:17.849Z,64.60
2017-11-30T00:22:17.822Z,70.30
2017-11-30T00:23:17.798Z,60.60
2017-11-30T00:24:17.769Z,65.00
2017-11-30T00:25:17.744Z,64.10
2017-11-30T00:26:17.717Z,68.70
2017-11-30T00:27:17.696Z,68.90
2017-11-30T00:28:17.676Z,71.70
2017-11-30T00:29:17.634Z,62.40
2017-11-30T00:30:17.608Z,63.70
2017-11-30T00:31:17.585Z,63.90
2017-11-30T00:32:17.558Z,62.70
2017-11-30T00:33:17.528Z,62.70
2017-11-30T00:34:17.501Z,66.30
2017-11-30T00:35:17.475Z,62.30
2017-11-30T00:36:17.448Z,72.70
2017-11-30T00:37:17.427Z,68.60
2017-11-30T00:38:17.396Z,70.50
2017-11-30T00:39:17.368Z,64.30
2017-11-30T00:40:17.343Z,71.60
2017-11-30T00:41:17.314Z,67.40
2017-11-30T00:42:17.288Z,59.90
2017-11-30T00:43:17.259Z,68.00
2017-11-30T00:44:17.238Z,68.10
2017-11-30T00:45:17.209Z,63.80
2017-11-30T00:46:17.181Z,67.30
2017-11-30T00:47:17.155Z,69.70
2017-11-30T00:48:17.129Z,62.30
2017-11-30T00:49:17.101Z,62.00
2017-11-30T00:50:17.077Z,60.20
2017-11-30T00:51:17.048Z,68.80
2017-11-30T00:52:17.022Z,66.60
2017-11-30T00:53:16.995Z,61.30
2017-11-30T00:54:16.969Z,64.20
2017-11-30T00:55:16.942Z,60.40
2017-11-30T00:56:16.912Z,69.50
2017-11-30T00:57:16.888Z,60.20
2017-11-30T00:58:16.860Z,61.50
2017-11-30T00:59:16.834Z,68.20
2017-11-30T01:00:16.805Z,61.90
2017-11-30T01:01:16.798Z,65.40
2017-11-30T01:02:16.753Z,66.10
2017-11-30T01:03:16.728Z,60.20
2017-11-30T01:04:16.701Z,66.20
2017-11-30T01:05:16.674Z,59.30
2017-11-30T01:06:16.645Z,61.50
2017-11-30T01:07:16.620Z,61.00
2017-11-30T01:08:16.595Z,61.90
2017-11-30T01:09:16.568Z,68.20
2017-11-30T01:10:16.540Z,68.90
2017-11-30T01:11:16.521Z,61.00
2017-11-30T01:12:16.487Z,59.20
2017-11-30T01:13:16.464Z,56.30
2017-11-30T01:14:16.433Z,64.20
2017-11-30T01:15:16.404Z,66.40
2017-11-30T01:16:16.381Z,62.80
2017-11-30T01:17:16.353Z,60.50
2017-11-30T01:18:16.325Z,61.40
2017-11-30T01:19:16.299Z,57.30
2017-11-30T01:20:16.273Z,60.10
2017-11-30T01:21:16.245Z,61.50
2017-11-30T01:22:16.218Z,56.60
2017-11-30T01:23:16.191Z,57.90
2017-11-30T01:24:16.164Z,59.90
2017-11-30T01:25:16.140Z,55.60
2017-11-30T01:26:16.109Z,61.10
2017-11-30T01:27:16.085Z,57.80
2017-11-30T01:28:16.058Z,62.30
2017-11-30T01:29:16.032Z,63.60
2017-11-30T01:30:16.002Z,61.20
2017-11-30T01:31:15.978Z,60.90
2017-11-30T01:32:15.950Z,58.20
2017-11-30T01:33:15.921Z,58.70
2017-11-30T01:34:15.897Z,60.80
2017-11-30T01:35:15.876Z,60.10
2017-11-30T01:36:15.850Z,63.20
2017-11-30T01:37:15.818Z,53.00
2017-11-30T01:38:15.791Z,60.00
2017-11-30T01:39:15.763Z,55.50
2017-11-30T01:40:15.736Z,54.70
2017-11-30T01:41:15.712Z,64.30
2017-11-30T01:42:15.684Z,53.90
2017-11-30T01:43:15.657Z,56.80
2017-11-30T01:44:15.629Z,56.20
2017-11-30T01:45:15.605Z,55.70
2017-11-30T01:46:15.576Z,57.60
2017-11-30T01:47:15.550Z,55.90
2017-11-30T01:48:15.522Z,55.10
2017-11-30T01:49:15.496Z,52.50
2017-11-30T01:50:15.470Z,56.00
2017-11-30T01:51:15.442Z,64.10
2017-11-30T01:52:15.418Z,56.80
2017-11-30T01:53:15.393Z,56.70
2017-11-30T01:54:15.362Z,60.70
2017-11-30T01:55:15.335Z,61.50
2017-11-30T01:56:15.310Z,61.30
2017-11-30T01:57:15.284Z,52.20
2017-11-30T01:58:15.257Z,58.90
2017-11-30T01:59:15.230Z,57.20
2017-11-30T02:00:15.203Z,57.20
2017-11-30T02:01:15.175Z,59.90
2017-11-30T02:02:15.150Z,56.70
2017-11-30T02:03:15.134Z,59.80
2017-11-30T02:04:15.096Z,67.40
2017-11-30T02:05:15.071Z,57.50
2017-11-30T02:06:15.043Z,59.20
2017-11-30T02:07:15.016Z,57.10
2017-11-30T02:08:14.989Z,58.70
2017-11-30T02:09:14.963Z,56.90
2017-11-30T02:10:14.936Z,59.30
2017-11-30T02:11:14.909Z,56.70
2017-11-30T02:12:14.882Z,54.70
2017-11-30T02:13:14.854Z,57.50
2017-11-30T02:14:14.829Z,56.90
2017-11-30T02:15:14.802Z,61.80
2017-11-30T02:16:14.776Z,62.60
2017-11-30T02:17:14.749Z,60.20
2017-11-30T02:18:14.723Z,58.30
2017-11-30T02:19:14.696Z,62.10
2017-11-30T02:20:14.669Z,55.10
2017-11-30T02:21:14.643Z,57.20
2017-11-30T02:22:14.617Z,58.40
2017-11-30T02:23:14.587Z,59.30
2017-11-30T02:24:14.561Z,53.10
2017-11-30T02:25:14.538Z,56.70
2017-11-30T02:26:14.510Z,57.90
2017-11-30T02:27:14.483Z,64.40
2017-11-30T02:28:14.455Z,55.80
2017-11-30T02:29:14.430Z,57.60
2017-11-30T02:30:14.405Z,55.70
2017-11-30T02:31:14.380Z,57.20
2017-11-30T02:32:14.350Z,58.70
2017-11-30T02:33:14.323Z,58.70
2017-11-30T02:34:14.297Z,58.30
2017-11-30T02:35:14.268Z,58.30
2017-11-30T02:36:14.243Z,60.50
2017-11-30T02:37:14.218Z,51.50
2017-11-30T02:38:14.189Z,62.00
2017-11-30T02:39:14.163Z,60.00
2017-11-30T02:40:14.140Z,58.90
2017-11-30T02:41:14.114Z,62.40
2017-11-30T02:42:14.083Z,58.90
2017-11-30T02:43:17.224Z,58.80
2017-11-30T02:44:14.034Z,56.60
2017-11-30T02:45:14.004Z,58.20
2017-11-30T02:46:13.981Z,59.50
2017-11-30T02:47:13.950Z,59.10
2017-11-30T02:48:13.929Z,58.00
2017-11-30T02:49:13.896Z,56.80
2017-11-30T02:50:13.870Z,60.20
2017-11-30T02:51:13.847Z,55.30
2017-11-30T02:52:13.816Z,64.20
2017-11-30T02:53:13.790Z,57.80
2017-11-30T02:54:13.765Z,54.10
2017-11-30T02:55:13.737Z,61.80
2017-11-30T02:56:13.710Z,61.80
2017-11-30T02:57:13.680Z,54.60
2017-11-30T02:58:13.654Z,61.90
2017-11-30T02:59:13.627Z,60.60
2017-11-30T03:00:13.603Z,57.10
2017-11-30T03:01:13.573Z,61.30
2017-11-30T03:02:13.547Z,61.90
2017-11-30T03:03:13.519Z,62.10
2017-11-30T03:04:13.493Z,57.60
2017-11-30T03:05:13.467Z,55.00
2017-11-30T03:06:13.446Z,58.20
2017-11-30T03:07:13.410Z,57.80
2017-11-30T03:08:13.390Z,58.20
2017-11-30T03:09:13.359Z,60.80
2017-11-30T03:10:13.334Z,62.80
2017-11-30T03:11:13.306Z,57.70
2017-11-30T03:12:13.280Z,59.10
2017-11-30T03:13:13.257Z,58.70
2017-11-30T03:14:13.223Z,61.20
2017-11-30T03:15:13.199Z,60.90
2017-11-30T03:16:13.171Z,61.50
2017-11-30T03:17:13.149Z,61.60
2017-11-30T03:18:13.118Z,61.30
2017-11-30T03:19:13.088Z,61.70
2017-11-30T03:20:13.063Z,64.10
2017-11-30T03:21:13.038Z,61.30
2017-11-30T03:22:13.007Z,58.20
2017-11-30T03:23:12.985Z,61.10
2017-11-30T03:24:12.959Z,63.00
2017-11-30T03:25:12.930Z,64.70
2017-11-30T03:26:12.903Z,66.10
2017-11-30T03:27:12.875Z,71.40
2017-11-30T03:28:12.857Z,67.70
2017-11-30T03:29:12.823Z,64.90
2017-11-30T03:30:12.796Z,69.50
2017-11-30T03:31:12.770Z,63.80
2017-11-30T03:32:12.746Z,72.90
2017-11-30T03:33:12.715Z,68.70
2017-11-30T03:34:12.688Z,77.20
2017-11-30T03:35:12.660Z,65.80
2017-11-30T03:36:12.633Z,76.00
2017-11-30T03:37:12.608Z,74.60
2017-11-30T03:38:12.580Z,77.00
2017-11-30T03:39:12.554Z,87.00
2017-11-30T03:40:12.524Z,79.30
2017-11-30T03:41:12.500Z,83.80
2017-11-30T03:42:12.472Z,95.90
2017-11-30T03:43:12.446Z,94.10
2017-11-30T03:44:12.419Z,94.60
2017-11-30T03:45:12.392Z,96.40
2017-11-30T03:46:12.366Z,99.90
2017-11-30T03:47:12.337Z,97.20
2017-11-30T03:48:12.310Z,93.20
2017-11-30T03:49:12.284Z,96.90
2017-11-30T03:50:12.256Z,97.90
2017-11-30T03:51:12.225Z,113.60
2017-11-30T03:52:12.201Z,109.20
2017-11-30T03:53:12.174Z,96.50
2017-11-30T03:54:12.148Z,112.30
2017-11-30T03:55:12.119Z,97.40
2017-11-30T03:56:12.094Z,111.80
2017-11-30T03:57:12.070Z,104.20
2017-11-30T03:58:12.040Z,103.30
2017-11-30T03:59:12.016Z,106.30
2017-11-30T04:00:11.996Z,108.90
2017-11-30T04:01:11.958Z,115.30
2017-11-30T04:02:11.930Z,132.40
2017-11-30T04:03:11.902Z,124.60
2017-11-30T04:04:11.877Z,123.10
2017-11-30T04:05:11.850Z,125.80
2017-11-30T04:06:11.821Z,128.30
2017-11-30T04:07:11.804Z,127.20
2017-11-30T04:08:11.770Z,129.60
2017-11-30T04:09:11.741Z,143.10
2017-11-30T04:10:11.712Z,129.30
2017-11-30T04:11:11.699Z,142.80
2017-11-30T04:12:11.658Z,133.90
2017-11-30T04:13:11.631Z,141.10
2017-11-30T04:14:11.602Z,132.60
2017-11-30T04:15:11.576Z,127.60
2017-11-30T04:16:11.548Z,133.90
2017-11-30T04:17:11.522Z,135.40
2017-11-30T04:18:11.492Z,145.20
2017-11-30T04:19:11.467Z,144.10
2017-11-30T04:20:11.438Z,151.30
2017-11-30T04:21:11.413Z,138.60
2017-11-30T04:22:11.385Z,143.90
2017-11-30T04:23:11.353Z,154.80
2017-11-30T04:24:11.330Z,153.90
2017-11-30T04:25:11.301Z,128.40
2017-11-30T04:26:11.273Z,147.80
2017-11-30T04:27:11.246Z,144.60
2017-11-30T04:28:11.219Z,154.10
2017-11-30T04:29:11.191Z,146.00
2017-11-30T04:30:11.164Z,126.60
2017-11-30T04:31:11.137Z,147.30
2017-11-30T04:32:11.109Z,144.60
2017-11-30T04:33:11.080Z,147.90
2017-11-30T04:34:11.064Z,167.20
2017-11-30T04:35:11.024Z,142.00
2017-11-30T04:36:10.997Z,140.10
2017-11-30T04:37:10.970Z,135.10
2017-11-30T04:38:10.942Z,151.50
2017-11-30T04:39:10.912Z,137.40
2017-11-30T04:40:10.888Z,127.10
2017-11-30T04:41:10.858Z,107.20
2017-11-30T04:42:10.832Z,112.90
2017-11-30T04:43:10.804Z,102.50
2017-11-30T04:44:10.816Z,112.40
2017-11-30T04:45:10.749Z,101.20
2017-11-30T04:46:10.727Z,111.40
2017-11-30T04:47:10.694Z,102.70
2017-11-30T04:48:10.668Z,104.20
2017-11-30T04:49:10.644Z,104.10
2017-11-30T04:50:10.611Z,120.40
2017-11-30T04:51:10.584Z,110.70
2017-11-30T04:52:10.557Z,115.20
2017-11-30T04:53:10.529Z,115.60
2017-11-30T04:54:10.501Z,115.80
2017-11-30T04:55:10.480Z,109.50
2017-11-30T04:56:10.450Z,116.30
2017-11-30T04:57:10.420Z,98.70
2017-11-30T04:58:10.393Z,102.10
2017-11-30T04:59:10.366Z,116.30
2017-11-30T05:00:10.339Z,112.50
2017-11-30T05:01:10.312Z,105.30
2017-11-30T05:02:10.282Z,95.00
2017-11-30T05:03:10.256Z,101.20
2017-11-30T05:04:10.229Z,102.50
2017-11-30T05:05:10.202Z,102.40
2017-11-30T05:06:10.173Z,109.30
2017-11-30T05:07:10.152Z,98.80
2017-11-30T05:08:10.119Z,107.10
2017-11-30T05:09:10.092Z,98.70
2017-11-30T05:10:10.064Z,99.70
2017-11-30T05:11:10.043Z,101.20
2017-11-30T05:12:10.014Z,112.10
2017-11-30T05:13:09.989Z,122.40
2017-11-30T05:14:09.951Z,104.20
2017-11-30T05:15:09.926Z,103.50
2017-11-30T05:16:09.900Z,116.10
2017-11-30T05:17:09.872Z,124.80
2017-11-30T05:18:09.845Z,110.80
2017-11-30T05:19:09.817Z,97.80
2017-11-30T05:20:09.790Z,105.90
2017-11-30T05:21:09.764Z,109.20
2017-11-30T05:22:09.734Z,113.70
2017-11-30T05:23:09.710Z,112.00
2017-11-30T05:24:09.681Z,111.40
2017-11-30T05:25:09.654Z,128.00
2017-11-30T05:26:09.627Z,120.80
2017-11-30T05:27:09.598Z,121.30
2017-11-30T05:28:09.572Z,103.60
2017-11-30T05:29:09.545Z,114.30
2017-11-30T05:30:09.517Z,109.40
2017-11-30T05:31:09.491Z,117.10
2017-11-30T05:32:09.463Z,110.90
2017-11-30T05:33:09.437Z,99.30
2017-11-30T05:34:09.410Z,121.00
2017-11-30T05:35:09.380Z,119.80
2017-11-30T05:36:09.354Z,119.50
2017-11-30T05:37:09.327Z,118.50
2017-11-30T05:38:09.297Z,136.20
2017-11-30T05:39:09.271Z,126.90
2017-11-30T05:40:09.248Z,133.40
2017-11-30T05:41:09.216Z,142.40
2017-11-30T05:42:09.189Z,158.50
2017-11-30T05:43:09.161Z,155.40
2017-11-30T05:44:09.138Z,161.60
2017-11-30T05:45:09.104Z,156.70
2017-11-30T05:46:09.079Z,163.90
2017-11-30T05:47:09.050Z,167.60
2017-11-30T05:48:09.031Z,195.90
2017-11-30T05:49:08.998Z,177.50
2017-11-30T05:50:08.967Z,191.20
2017-11-30T05:51:08.941Z,210.00
2017-11-30T05:52:08.912Z,207.50
2017-11-30T05:53:08.886Z,222.80
2017-11-30T05:54:08.857Z,229.30
2017-11-30T05:55:08.833Z,224.40
2017-11-30T05:56:08.803Z,217.60
2017-11-30T05:57:08.776Z,230.40
2017-11-30T05:58:08.747Z,226.50
2017-11-30T05:59:08.721Z,220.80
2017-11-30T06:00:08.693Z,226.80
2017-11-30T06:01:08.666Z,184.80
2017-11-30T06:02:08.637Z,248.40
2017-11-30T06:03:08.611Z,238.40
2017-11-30T06:04:08.584Z,235.50
2017-11-30T06:05:08.557Z,233.40
2017-11-30T06:06:08.528Z,256.90
2017-11-30T06:07:08.502Z,223.20
2017-11-30T06:08:08.475Z,233.90
2017-11-30T06:09:08.444Z,234.70
2017-11-30T06:10:08.419Z,240.30
2017-11-30T06:11:08.391Z,249.10
2017-11-30T06:12:08.362Z,251.50
2017-11-30T06:13:08.337Z,233.40
2017-11-30T06:14:08.308Z,227.40
2017-11-30T06:15:08.280Z,240.30
2017-11-30T06:16:08.255Z,234.90
2017-11-30T06:17:08.228Z,260.30
2017-11-30T06:18:08.198Z,212.90
2017-11-30T06:19:08.173Z,234.50
2017-11-30T06:20:08.145Z,266.70
2017-11-30T06:21:08.120Z,242.70
2017-11-30T06:22:08.097Z,251.30
2017-11-30T06:23:08.063Z,210.50
2017-11-30T06:24:08.037Z,228.20
2017-11-30T06:25:08.009Z,218.80
2017-11-30T06:26:07.983Z,240.00
2017-11-30T06:27:07.954Z,242.10
2017-11-30T06:28:07.936Z,236.70
2017-11-30T06:29:07.901Z,228.40
2017-11-30T06:30:07.873Z,222.40
2017-11-30T06:31:07.848Z,215.90
2017-11-30T06:32:07.819Z,224.90
2017-11-30T06:33:07.793Z,236.90
2017-11-30T06:34:07.766Z,225.00
2017-11-30T06:35:07.738Z,239.20
2017-11-30T06:36:07.714Z,224.30
2017-11-30T06:37:07.682Z,224.40
2017-11-30T06:38:07.657Z,221.30
2017-11-30T06:39:07.629Z,245.30
2017-11-30T06:40:07.601Z,269.30
2017-11-30T06:41:07.573Z,283.20
2017-11-30T06:42:07.547Z,237.40
2017-11-30T06:43:07.518Z,262.90
2017-11-30T06:44:07.492Z,249.40
2017-11-30T06:45:07.466Z,245.60
2017-11-30T06:46:07.437Z,261.80
2017-11-30T06:47:07.409Z,270.30
2017-11-30T06:48:07.389Z,252.70
2017-11-30T06:49:07.357Z,236.30
2017-11-30T06:50:07.329Z,239.90
2017-11-30T06:51:07.301Z,250.50
2017-11-30T06:52:07.276Z,271.70
2017-11-30T06:53:07.250Z,213.80
2017-11-30T06:54:07.220Z,238.40
2017-11-30T06:55:07.192Z,241.40
2017-11-30T06:56:07.169Z,229.60
2017-11-30T06:57:07.139Z,214.80
2017-11-30T06:58:07.111Z,219.40
2017-11-30T06:59:07.086Z,256.90
2017-11-30T07:00:07.058Z,252.30
2017-11-30T07:01:07.035Z,233.30
2017-11-30T07:02:07.004Z,219.40
2017-11-30T07:03:06.975Z,243.70
2017-11-30T07:04:06.949Z,202.80
2017-11-30T07:05:06.923Z,269.80
2017-11-30T07:06:06.892Z,246.60
2017-11-30T07:07:06.867Z,249.40
2017-11-30T07:08:06.842Z,273.00
2017-11-30T07:09:06.812Z,270.20
2017-11-30T07:10:06.787Z,259.90
2017-11-30T07:11:06.760Z,268.70
2017-11-30T07:12:06.735Z,263.40
2017-11-30T07:13:06.705Z,278.20
2017-11-30T07:14:06.679Z,255.70
2017-11-30T07:15:06.651Z,271.70
2017-11-30T07:16:06.623Z,284.70
2017-11-30T07:17:06.603Z,299.50
2017-11-30T07:18:06.579Z,312.70
2017-11-30T07:19:06.553Z,306.60
2017-11-30T07:20:06.517Z,293.60
2017-11-30T07:21:06.492Z,257.80
2017-11-30T07:22:06.461Z,307.70
2017-11-30T07:23:06.434Z,318.50
2017-11-30T07:24:06.408Z,320.60
2017-11-30T07:25:06.378Z,347.00
2017-11-30T07:26:06.352Z,311.50
2017-11-30T07:27:06.325Z,313.50
2017-11-30T07:28:06.298Z,318.40
2017-11-30T07:29:06.273Z,293.60
2017-11-30T07:30:06.250Z,309.00
2017-11-30T07:31:06.215Z,315.40
2017-11-30T07:32:06.190Z,337.40
2017-11-30T07:33:06.163Z,342.20
2017-11-30T07:34:06.136Z,345.00
2017-11-30T07:35:06.108Z,397.70
2017-11-30T07:36:06.082Z,371.80
2017-11-30T07:37:06.055Z,376.30
2017-11-30T07:38:06.025Z,325.40
2017-11-30T07:39:06.000Z,307.60
2017-11-30T07:40:05.974Z,382.30
2017-11-30T07:41:05.953Z,332.30
2017-11-30T07:42:05.918Z,393.00
2017-11-30T07:43:05.890Z,313.20
2017-11-30T07:44:05.871Z,323.70
2017-11-30T07:45:05.843Z,335.00
2017-11-30T07:46:05.807Z,332.30
2017-11-30T07:47:05.784Z,385.10
2017-11-30T07:48:05.757Z,367.20
2017-11-30T07:49:05.731Z,330.10
2017-11-30T07:50:05.703Z,361.10
2017-11-30T07:51:05.683Z,385.10
2017-11-30T07:52:05.653Z,373.10
2017-11-30T07:53:05.621Z,399.20
2017-11-30T07:54:05.596Z,401.70
2017-11-30T07:55:05.563Z,330.40
2017-11-30T07:56:05.542Z,336.90
2017-11-30T07:57:05.516Z,265.30
2017-11-30T07:58:05.486Z,269.00
2017-11-30T07:59:05.460Z,274.10
2017-11-30T08:00:05.432Z,292.70
2017-11-30T08:01:05.405Z,284.20
2017-11-30T08:02:05.388Z,296.60
2017-11-30T08:03:05.352Z,304.70
2017-11-30T08:04:05.322Z,312.60
2017-11-30T08:05:05.296Z,325.90
2017-11-30T08:06:05.268Z,320.00
2017-11-30T08:07:05.242Z,261.50
2017-11-30T08:08:05.217Z,312.40
2017-11-30T08:09:05.189Z,286.80
2017-11-30T08:10:05.163Z,295.30
2017-11-30T08:11:05.135Z,312.20
2017-11-30T08:12:05.110Z,384.90
2017-11-30T08:13:05.083Z,323.50
2017-11-30T08:14:05.057Z,321.00
2017-11-30T08:15:05.032Z,301.60
2017-11-30T08:16:05.005Z,296.30
2017-11-30T08:17:04.974Z,296.60
2017-11-30T08:18:04.945Z,336.60
2017-11-30T08:19:04.926Z,287.10
2017-11-30T08:20:04.894Z,265.20
2017-11-30T08:21:04.868Z,322.70
2017-11-30T08:22:04.839Z,339.30
2017-11-30T08:23:04.811Z,246.60
2017-11-30T08:24:04.787Z,334.70
2017-11-30T08:25:04.759Z,299.00
2017-11-30T08:26:04.731Z,313.40
2017-11-30T08:27:04.706Z,301.70
2017-11-30T08:28:04.678Z,271.60
2017-11-30T08:29:04.653Z,326.60
2017-11-30T08:30:04.624Z,274.50
2017-11-30T08:31:04.599Z,294.50
2017-11-30T08:32:04.570Z,297.50
2017-11-30T08:33:04.545Z,281.90
2017-11-30T08:34:04.522Z,279.50
2017-11-30T08:35:04.493Z,236.80
2017-11-30T08:36:04.465Z,244.90
2017-11-30T08:37:04.439Z,252.30
2017-11-30T08:38:04.411Z,277.80
2017-11-30T08:39:04.383Z,273.90
2017-11-30T08:40:04.355Z,268.70
2017-11-30T08:41:04.332Z,286.60
2017-11-30T08:42:04.304Z,255.50
2017-11-30T08:43:04.281Z,222.90
2017-11-30T08:44:04.249Z,235.70
2017-11-30T08:45:04.227Z,214.70
2017-11-30T08:46:04.196Z,230.90
2017-11-30T08:47:04.170Z,245.40
2017-11-30T08:48:04.152Z,236.90
2017-11-30T08:49:04.116Z,201.80
2017-11-30T08:50:04.090Z,208.60
2017-11-30T08:51:04.065Z,200.70
2017-11-30T08:52:04.035Z,188.90
2017-11-30T08:53:04.013Z,198.50
2017-11-30T08:54:03.985Z,174.40
2017-11-30T08:55:03.959Z,172.20
2017-11-30T08:56:03.929Z,159.90
2017-11-30T08:57:03.907Z,178.20
2017-11-30T08:58:03.881Z,163.40
2017-11-30T08:59:03.853Z,161.40
2017-11-30T09:00:03.828Z,119.80
2017-11-30T09:01:03.802Z,115.90
2017-11-30T09:02:03.774Z,125.90
2017-11-30T09:03:03.759Z,120.90
2017-11-30T09:04:03.727Z,138.80
2017-11-30T09:05:03.698Z,142.80
2017-11-30T09:06:03.668Z,134.00
2017-11-30T09:07:03.644Z,118.30
2017-11-30T09:08:03.617Z,108.00
2017-11-30T09:09:03.591Z,127.80
2017-11-30T09:10:03.572Z,111.70
2017-11-30T09:11:03.540Z,128.60
2017-11-30T09:12:03.513Z,131.20
2017-11-30T09:13:03.487Z,151.10
2017-11-30T09:14:03.460Z,129.00
2017-11-30T09:15:03.432Z,130.60
2017-11-30T09:16:03.408Z,110.80
2017-11-30T09:17:03.382Z,97.30
2017-11-30T09:18:03.353Z,123.40
2017-11-30T09:19:03.329Z,103.00
2017-11-30T09:20:03.307Z,117.40
2017-11-30T09:21:03.277Z,108.90
2017-11-30T09:22:03.250Z,104.30
2017-11-30T09:23:03.227Z,122.20
2017-11-30T09:24:03.200Z,107.70
2017-11-30T09:25:03.183Z,99.10
2017-11-30T09:26:03.147Z,116.20
2017-11-30T09:27:03.121Z,91.00
2017-11-30T09:28:03.095Z,97.90
2017-11-30T09:29:03.069Z,115.80
2017-11-30T09:30:03.042Z,112.20
2017-11-30T09:31:03.016Z,114.80
2017-11-30T09:32:02.990Z,109.00
2017-11-30T09:33:02.966Z,86.30
2017-11-30T09:34:02.937Z,96.70
2017-11-30T09:35:02.915Z,86.10
2017-11-30T09:36:02.886Z,93.20
2017-11-30T09:37:02.866Z,76.60
2017-11-30T09:38:02.832Z,84.50
2017-11-30T09:39:02.805Z,77.10
2017-11-30T09:40:02.782Z,69.40
2017-11-30T09:41:02.755Z,75.10
2017-11-30T09:42:02.727Z,85.60
2017-11-30T09:43:02.704Z,87.00
2017-11-30T09:44:02.675Z,79.60
2017-11-30T09:45:02.652Z,81.20
2017-11-30T09:46:02.624Z,82.70
2017-11-30T09:47:02.595Z,74.10
2017-11-30T09:48:02.575Z,71.90
2017-11-30T09:49:02.547Z,74.90
2017-11-30T09:50:02.517Z,75.00
2017-11-30T09:51:02.493Z,74.20
2017-11-30T09:52:02.467Z,77.00
2017-11-30T09:53:02.442Z,76.30
2017-11-30T09:54:02.415Z,87.00
2017-11-30T09:55:02.389Z,81.50
2017-11-30T09:56:02.363Z,85.40
2017-11-30T09:57:02.336Z,78.80
2017-11-30T09:58:02.310Z,89.50
2017-11-30T09:59:02.284Z,76.40
2017-11-30T10:00:02.259Z,70.40
2017-11-30T10:01:02.234Z,76.00
2017-11-30T10:02:02.205Z,76.00
2017-11-30T10:03:02.180Z,77.40
2017-11-30T10:04:02.153Z,66.00
2017-11-30T10:05:02.129Z,60.40
2017-11-30T10:06:02.105Z,68.00
2017-11-30T10:07:02.089Z,67.10
2017-11-30T10:08:02.051Z,67.10
2017-11-30T10:09:02.032Z,72.60
2017-11-30T10:10:01.998Z,65.00
2017-11-30T10:11:01.973Z,66.10
2017-11-30T10:12:01.947Z,77.40
2017-11-30T10:13:01.920Z,70.10
2017-11-30T10:14:01.894Z,66.20
2017-11-30T10:15:01.866Z,70.80
2017-11-30T10:16:01.847Z,72.00
2017-11-30T10:17:01.815Z,77.60
2017-11-30T10:18:01.791Z,75.60
2017-11-30T10:19:01.763Z,71.10
2017-11-30T10:20:01.739Z,70.50
2017-11-30T10:21:01.712Z,76.70
2017-11-30T10:22:01.691Z,71.60
2017-11-30T10:23:01.660Z,78.20
2017-11-30T10:24:01.636Z,73.50
2017-11-30T10:25:01.609Z,72.10
2017-11-30T10:26:01.585Z,68.50
2017-11-30T10:27:01.556Z,90.40
2017-11-30T10:28:01.531Z,89.20
2017-11-30T10:29:01.507Z,68.10
2017-11-30T10:30:01.478Z,72.50
2017-11-30T10:31:01.451Z,72.40
2017-11-30T10:32:01.426Z,76.90
2017-11-30T10:33:01.401Z,85.80
2017-11-30T10:34:01.373Z,82.40
2017-11-30T10:35:01.351Z,87.80
2017-11-30T10:36:01.323Z,77.40
2017-11-30T10:37:01.296Z,84.50
2017-11-30T10:38:01.269Z,82.90
2017-11-30T10:39:01.251Z,81.40
2017-11-30T10:40:01.222Z,89.10
2017-11-30T10:41:01.197Z,86.90
2017-11-30T10:42:01.166Z,81.60
2017-11-30T10:43:01.140Z,78.90
2017-11-30T10:44:01.115Z,81.60
2017-11-30T10:45:01.090Z,71.80
2017-11-30T10:46:01.063Z,68.80
2017-11-30T10:47:01.035Z,62.40
2017-11-30T10:48:01.013Z,68.60
2017-11-30T10:49:00.983Z,67.10
2017-11-30T10:50:00.958Z,70.50
2017-11-30T10:51:00.932Z,60.20
2017-11-30T10:52:00.910Z,64.60
2017-11-30T10:53:00.881Z,56.60
2017-11-30T10:54:00.859Z,54.90
2017-11-30T10:55:00.827Z,64.40
2017-11-30T10:56:00.817Z,53.20
2017-11-30T10:57:00.788Z,58.20
2017-11-30T10:58:00.749Z,57.80
2017-11-30T10:59:00.726Z,63.00
2017-11-30T11:00:00.701Z,65.00
2017-11-30T11:01:00.673Z,55.50
2017-11-30T11:02:00.709Z,59.90
2017-11-30T11:03:00.618Z,63.00
2017-11-30T11:04:00.597Z,53.10
2017-11-30T11:05:00.569Z,52.10
2017-11-30T11:06:00.543Z,47.30
2017-11-30T11:07:00.516Z,51.40
2017-11-30T11:08:00.494Z,57.80
2017-11-30T11:09:00.474Z,47.40
2017-11-30T11:10:00.440Z,42.40
2017-11-30T11:11:00.413Z,45.10
2017-11-30T11:12:00.389Z,41.80
2017-11-30T11:13:00.383Z,47.90
2017-11-30T11:14:00.337Z,49.00
2017-11-30T11:15:00.310Z,50.40
2017-11-30T11:16:00.285Z,43.40
2017-11-30T11:17:00.258Z,47.80
2017-11-30T11:18:00.237Z,45.70
2017-11-30T11:19:00.204Z,41.90
2017-11-30T11:20:00.182Z,52.20
2017-11-30T11:21:00.157Z,49.40
2017-11-30T11:22:00.131Z,50.10
2017-11-30T11:23:00.104Z,42.00
2017-11-30T11:24:00.078Z,42.60
2017-11-30T11:25:00.054Z,41.50
2017-11-30T11:26:00.028Z,36.40
2017-11-30T11:27:00.005Z,29.80
2017-11-30T11:27:59.976Z,32.30
2017-11-30T11:28:59.952Z,33.10
2017-11-30T11:29:59.922Z,38.10
2017-11-30T11:30:59.898Z,30.50
2017-11-30T11:31:59.871Z,31.70
2017-11-30T11:32:59.849Z,25.30
2017-11-30T11:33:59.822Z,23.40
2017-11-30T11:34:59.827Z,23.30
2017-11-30T11:35:59.774Z,24.00
2017-11-30T11:36:59.747Z,22.40
2017-11-30T11:37:59.739Z,21.80
2017-11-30T11:38:59.702Z,20.70
2017-11-30T11:39:59.670Z,24.00
2017-11-30T11:40:59.644Z,23.10
2017-11-30T11:41:59.619Z,20.60
2017-11-30T11:42:59.595Z,21.30
2017-11-30T11:43:59.567Z,25.60
2017-11-30T11:44:59.548Z,24.20
2017-11-30T11:45:59.518Z,24.80
2017-11-30T11:46:59.512Z,21.30
2017-11-30T11:47:59.466Z,24.80
2017-11-30T11:48:59.441Z,24.80
2017-11-30T11:49:59.419Z,22.80
2017-11-30T11:50:59.390Z,24.70
2017-11-30T11:51:59.365Z,27.90
2017-11-30T11:52:59.338Z,23.80
2017-11-30T11:53:59.311Z,19.50
2017-11-30T11:54:59.288Z,22.90
2017-11-30T11:55:59.319Z,25.50
2017-11-30T11:56:59.239Z,25.20
2017-11-30T11:57:59.210Z,23.40
2017-11-30T11:58:59.187Z,22.30
2017-11-30T11:59:59.161Z,25.20
2017-11-30T12:00:59.136Z,24.90
2017-11-30T12:01:59.109Z,24.40
2017-11-30T12:02:59.085Z,27.40
2017-11-30T12:03:59.085Z,23.10
2017-11-30T12:04:59.038Z,25.60
2017-11-30T12:05:59.010Z,18.10
2017-11-30T12:06:58.983Z,22.40
2017-11-30T12:07:58.972Z,21.80
2017-11-30T12:08:58.933Z,20.20
2017-11-30T12:09:58.909Z,20.50
2017-11-30T12:10:58.883Z,21.10
2017-11-30T12:11:58.860Z,17.90
2017-11-30T12:12:58.833Z,19.00
2017-11-30T12:13:58.809Z,18.20
2017-11-30T12:14:58.780Z,21.60
2017-11-30T12:15:58.760Z,20.30
2017-11-30T12:16:58.732Z,21.30
2017-11-30T12:17:58.707Z,23.10
2017-11-30T12:18:58.683Z,19.80
2017-11-30T12:19:58.662Z,20.90
2017-11-30T12:20:58.642Z,22.40
2017-11-30T12:21:58.609Z,23.60
2017-11-30T12:22:58.581Z,22.70
2017-11-30T12:23:58.557Z,22.80
2017-11-30T12:24:58.540Z,22.20
2017-11-30T12:25:58.508Z,24.00
2017-11-30T12:26:58.484Z,23.50
2017-11-30T12:27:58.472Z,20.30
2017-11-30T12:28:58.431Z,24.20
2017-11-30T12:29:58.408Z,19.70
2017-11-30T12:30:58.381Z,23.60
2017-11-30T12:31:58.358Z,20.50
2017-11-30T12:32:58.342Z,21.20
2017-11-30T12:33:58.314Z,24.10
2017-11-30T12:34:58.281Z,21.70
2017-11-30T12:35:58.256Z,17.70
2017-11-30T12:36:58.231Z,20.40
2017-11-30T12:37:58.206Z,19.60
2017-11-30T12:38:58.182Z,22.40
2017-11-30T12:39:58.157Z,19.60
2017-11-30T12:40:58.130Z,20.10
2017-11-30T12:41:58.103Z,20.90